sensor_id;sensor_type;location;lat;lon;timestamp;temperature;humidity
19847;DHT22;10084;50.518;8.588;2022-11-06T00:00:57;7.20;71.50
19847;DHT22;10084;50.518;8.588;2022-11-06T00:03:23;7.20;71.60
19847;DHT22;10084;50.518;8.588;2022-11-06T00:05:49;7.20;71.70
19847;DHT22;10084;50.518;8.588;2022-11-06T00:08:37;7.20;71.70
19847;DHT22;10084;50.518;8.588;2022-11-06T00:11:09;7.20;71.80
19847;DHT22;10084;50.518;8.588;2022-11-06T00:13:36;7.20;71.80
19847;DHT22;10084;50.518;8.588;2022-11-06T00:16:03;7.10;72.40
19847;DHT22;10084;50.518;8.588;2022-11-06T00:18:29;7.10;71.70
19847;DHT22;10084;50.518;8.588;2022-11-06T00:20:55;7.10;71.70
19847;DHT22;10084;50.518;8.588;2022-11-06T00:23:20;7.00;71.80
19847;DHT22;10084;50.518;8.588;2022-11-06T00:25:46;7.00;71.80
19847;DHT22;10084;50.518;8.588;2022-11-06T00:28:12;6.90;71.80
19847;DHT22;10084;50.518;8.588;2022-11-06T00:30:38;6.90;72.00
19847;DHT22;10084;50.518;8.588;2022-11-06T00:33:03;6.80;72.00
19847;DHT22;10084;50.518;8.588;2022-11-06T00:35:29;6.80;72.10
19847;DHT22;10084;50.518;8.588;2022-11-06T00:37:55;6.80;72.20
19847;DHT22;10084;50.518;8.588;2022-11-06T00:40:20;6.80;72.30
19847;DHT22;10084;50.518;8.588;2022-11-06T00:42:46;6.70;72.20
19847;DHT22;10084;50.518;8.588;2022-11-06T00:45:11;6.70;72.30
19847;DHT22;10084;50.518;8.588;2022-11-06T00:47:37;6.70;72.30
19847;DHT22;10084;50.518;8.588;2022-11-06T00:50:03;6.60;72.30
19847;DHT22;10084;50.518;8.588;2022-11-06T00:52:29;6.60;72.30
19847;DHT22;10084;50.518;8.588;2022-11-06T00:54:54;6.50;72.20
19847;DHT22;10084;50.518;8.588;2022-11-06T00:57:20;6.50;72.30
19847;DHT22;10084;50.518;8.588;2022-11-06T00:59:46;6.40;72.30
19847;DHT22;10084;50.518;8.588;2022-11-06T01:02:11;6.40;72.50
19847;DHT22;10084;50.518;8.588;2022-11-06T01:04:37;6.30;72.40
19847;DHT22;10084;50.518;8.588;2022-11-06T01:07:03;6.30;72.50
19847;DHT22;10084;50.518;8.588;2022-11-06T01:09:28;6.20;72.50
19847;DHT22;10084;50.518;8.588;2022-11-06T01:11:57;6.20;72.60
19847;DHT22;10084;50.518;8.588;2022-11-06T01:14:23;6.10;72.50
19847;DHT22;10084;50.518;8.588;2022-11-06T01:16:49;6.10;72.60
19847;DHT22;10084;50.518;8.588;2022-11-06T01:19:17;6.10;72.60
19847;DHT22;10084;50.518;8.588;2022-11-06T01:21:45;6.00;72.60
19847;DHT22;10084;50.518;8.588;2022-11-06T01:24:23;6.00;72.70
19847;DHT22;10084;50.518;8.588;2022-11-06T01:26:49;5.90;72.70
19847;DHT22;10084;50.518;8.588;2022-11-06T01:29:16;5.90;72.70
19847;DHT22;10084;50.518;8.588;2022-11-06T01:31:43;5.90;72.80
19847;DHT22;10084;50.518;8.588;2022-11-06T01:34:10;5.80;72.80
19847;DHT22;10084;50.518;8.588;2022-11-06T01:36:36;5.80;72.90
19847;DHT22;10084;50.518;8.588;2022-11-06T01:39:05;5.80;72.90
19847;DHT22;10084;50.518;8.588;2022-11-06T01:41:35;5.70;72.90
19847;DHT22;10084;50.518;8.588;2022-11-06T01:47:00;5.70;72.90
19847;DHT22;10084;50.518;8.588;2022-11-06T01:49:29;5.60;73.00
19847;DHT22;10084;50.518;8.588;2022-11-06T01:52:02;5.60;72.90
19847;DHT22;10084;50.518;8.588;2022-11-06T01:54:29;5.50;72.90
19847;DHT22;10084;50.518;8.588;2022-11-06T01:56:57;5.50;72.90
19847;DHT22;10084;50.518;8.588;2022-11-06T01:59:26;5.40;72.90
19847;DHT22;10084;50.518;8.588;2022-11-06T02:01:53;5.40;73.10
19847;DHT22;10084;50.518;8.588;2022-11-06T02:04:26;5.30;73.90
19847;DHT22;10084;50.518;8.588;2022-11-06T02:06:53;5.30;73.30
19847;DHT22;10084;50.518;8.588;2022-11-06T02:09:19;5.30;73.40
19847;DHT22;10084;50.518;8.588;2022-11-06T02:11:50;5.30;73.40
19847;DHT22;10084;50.518;8.588;2022-11-06T02:16:51;5.30;73.60
19847;DHT22;10084;50.518;8.588;2022-11-06T02:19:48;5.40;73.80
19847;DHT22;10084;50.518;8.588;2022-11-06T02:22:40;5.50;74.00
19847;DHT22;10084;50.518;8.588;2022-11-06T02:27:58;5.60;73.90
19847;DHT22;10084;50.518;8.588;2022-11-06T02:30:30;5.70;74.10
19847;DHT22;10084;50.518;8.588;2022-11-06T02:33:11;5.70;74.00
19847;DHT22;10084;50.518;8.588;2022-11-06T02:38:17;5.80;74.00
19847;DHT22;10084;50.518;8.588;2022-11-06T02:40:49;5.90;74.00
19847;DHT22;10084;50.518;8.588;2022-11-06T02:43:18;5.90;74.00
19847;DHT22;10084;50.518;8.588;2022-11-06T02:45:54;5.90;74.10
19847;DHT22;10084;50.518;8.588;2022-11-06T02:48:25;5.90;74.10
19847;DHT22;10084;50.518;8.588;2022-11-06T02:50:53;5.90;74.10
19847;DHT22;10084;50.518;8.588;2022-11-06T02:53:23;5.90;74.10
19847;DHT22;10084;50.518;8.588;2022-11-06T02:55:52;6.00;74.20
19847;DHT22;10084;50.518;8.588;2022-11-06T02:58:47;6.00;74.20
19847;DHT22;10084;50.518;8.588;2022-11-06T03:01:27;6.00;74.30
19847;DHT22;10084;50.518;8.588;2022-11-06T03:03:57;5.90;74.30
19847;DHT22;10084;50.518;8.588;2022-11-06T03:06:44;5.90;74.40
19847;DHT22;10084;50.518;8.588;2022-11-06T03:09:17;6.00;74.50
19847;DHT22;10084;50.518;8.588;2022-11-06T03:11:44;6.00;74.60
19847;DHT22;10084;50.518;8.588;2022-11-06T03:14:35;6.00;74.60
19847;DHT22;10084;50.518;8.588;2022-11-06T03:17:13;5.90;74.60
19847;DHT22;10084;50.518;8.588;2022-11-06T03:19:53;5.90;74.60
19847;DHT22;10084;50.518;8.588;2022-11-06T03:22:31;5.90;74.60
19847;DHT22;10084;50.518;8.588;2022-11-06T03:27:48;5.90;74.60
19847;DHT22;10084;50.518;8.588;2022-11-06T03:30:17;5.90;74.70
19847;DHT22;10084;50.518;8.588;2022-11-06T03:32:56;5.90;74.60
19847;DHT22;10084;50.518;8.588;2022-11-06T03:38:06;5.80;74.50
19847;DHT22;10084;50.518;8.588;2022-11-06T03:40:36;5.70;74.60
19847;DHT22;10084;50.518;8.588;2022-11-06T03:43:05;5.70;74.80
19847;DHT22;10084;50.518;8.588;2022-11-06T03:45:32;5.70;75.00
19847;DHT22;10084;50.518;8.588;2022-11-06T03:48:11;5.70;75.00
19847;DHT22;10084;50.518;8.588;2022-11-06T03:50:59;5.60;74.80
19847;DHT22;10084;50.518;8.588;2022-11-06T03:56:11;5.60;75.00
19847;DHT22;10084;50.518;8.588;2022-11-06T03:58:43;5.60;75.20
19847;DHT22;10084;50.518;8.588;2022-11-06T04:01:11;5.60;75.40
19847;DHT22;10084;50.518;8.588;2022-11-06T04:03:48;5.60;75.40
19847;DHT22;10084;50.518;8.588;2022-11-06T04:06:22;5.70;75.60
19847;DHT22;10084;50.518;8.588;2022-11-06T04:08:51;5.80;75.60
19847;DHT22;10084;50.518;8.588;2022-11-06T04:11:39;5.80;75.50
19847;DHT22;10084;50.518;8.588;2022-11-06T04:14:26;5.80;75.50
19847;DHT22;10084;50.518;8.588;2022-11-06T04:16:57;5.80;75.50
19847;DHT22;10084;50.518;8.588;2022-11-06T04:19:23;5.80;75.50
19847;DHT22;10084;50.518;8.588;2022-11-06T04:30:17;5.70;75.60
19847;DHT22;10084;50.518;8.588;2022-11-06T04:33:03;5.60;75.50
19847;DHT22;10084;50.518;8.588;2022-11-06T04:38:29;5.50;75.70
19847;DHT22;10084;50.518;8.588;2022-11-06T04:41:18;5.50;75.80
19847;DHT22;10084;50.518;8.588;2022-11-06T04:43:57;5.50;75.90
19847;DHT22;10084;50.518;8.588;2022-11-06T04:46:36;5.40;76.00
19847;DHT22;10084;50.518;8.588;2022-11-06T04:49:05;5.40;76.10
19847;DHT22;10084;50.518;8.588;2022-11-06T04:51:34;5.40;76.20
19847;DHT22;10084;50.518;8.588;2022-11-06T04:54:01;5.50;76.40
19847;DHT22;10084;50.518;8.588;2022-11-06T04:56:33;5.50;76.30
19847;DHT22;10084;50.518;8.588;2022-11-06T04:58:59;5.50;77.10
19847;DHT22;10084;50.518;8.588;2022-11-06T05:01:25;5.50;76.40
19847;DHT22;10084;50.518;8.588;2022-11-06T05:03:51;5.50;76.40
19847;DHT22;10084;50.518;8.588;2022-11-06T05:06:17;5.50;76.40
19847;DHT22;10084;50.518;8.588;2022-11-06T05:08:43;5.50;76.40
19847;DHT22;10084;50.518;8.588;2022-11-06T05:11:09;5.50;76.30
19847;DHT22;10084;50.518;8.588;2022-11-06T05:13:34;5.40;76.30
19847;DHT22;10084;50.518;8.588;2022-11-06T05:16:00;5.40;76.20
19847;DHT22;10084;50.518;8.588;2022-11-06T05:18:26;5.40;76.30
19847;DHT22;10084;50.518;8.588;2022-11-06T05:20:52;5.30;76.30
19847;DHT22;10084;50.518;8.588;2022-11-06T05:23:39;5.30;76.50
19847;DHT22;10084;50.518;8.588;2022-11-06T05:26:05;5.30;76.50
19847;DHT22;10084;50.518;8.588;2022-11-06T05:28:31;5.20;76.50
19847;DHT22;10084;50.518;8.588;2022-11-06T05:30:57;5.20;76.60
19847;DHT22;10084;50.518;8.588;2022-11-06T05:33:22;5.20;76.70
19847;DHT22;10084;50.518;8.588;2022-11-06T05:35:49;5.20;76.70
19847;DHT22;10084;50.518;8.588;2022-11-06T05:38:14;5.10;76.70
19847;DHT22;10084;50.518;8.588;2022-11-06T05:40:40;5.10;76.80
19847;DHT22;10084;50.518;8.588;2022-11-06T05:43:06;5.10;76.80
19847;DHT22;10084;50.518;8.588;2022-11-06T05:45:32;5.00;76.80
19847;DHT22;10084;50.518;8.588;2022-11-06T05:47:58;5.00;76.80
19847;DHT22;10084;50.518;8.588;2022-11-06T05:50:24;5.00;76.80
19847;DHT22;10084;50.518;8.588;2022-11-06T05:52:49;4.90;76.70
19847;DHT22;10084;50.518;8.588;2022-11-06T05:55:15;4.90;76.70
19847;DHT22;10084;50.518;8.588;2022-11-06T05:57:41;4.80;76.60
19847;DHT22;10084;50.518;8.588;2022-11-06T06:00:08;4.70;76.60
19847;DHT22;10084;50.518;8.588;2022-11-06T06:02:38;4.60;76.70
19847;DHT22;10084;50.518;8.588;2022-11-06T06:05:04;4.60;76.80
19847;DHT22;10084;50.518;8.588;2022-11-06T06:07:31;4.50;77.00
19847;DHT22;10084;50.518;8.588;2022-11-06T06:09:57;4.50;77.10
19847;DHT22;10084;50.518;8.588;2022-11-06T06:12:23;4.50;77.40
19847;DHT22;10084;50.518;8.588;2022-11-06T06:14:54;4.50;77.50
19847;DHT22;10084;50.518;8.588;2022-11-06T06:17:20;4.50;77.60
19847;DHT22;10084;50.518;8.588;2022-11-06T06:19:46;4.50;77.70
19847;DHT22;10084;50.518;8.588;2022-11-06T06:22:12;4.50;77.70
19847;DHT22;10084;50.518;8.588;2022-11-06T06:24:38;4.50;77.70
19847;DHT22;10084;50.518;8.588;2022-11-06T06:27:04;4.60;77.70
19847;DHT22;10084;50.518;8.588;2022-11-06T06:29:30;4.60;77.70
19847;DHT22;10084;50.518;8.588;2022-11-06T06:31:55;4.60;77.70
19847;DHT22;10084;50.518;8.588;2022-11-06T06:34:21;4.60;77.80
19847;DHT22;10084;50.518;8.588;2022-11-06T06:36:51;4.60;77.90
19847;DHT22;10084;50.518;8.588;2022-11-06T06:39:17;4.70;78.10
19847;DHT22;10084;50.518;8.588;2022-11-06T06:41:44;4.70;78.10
19847;DHT22;10084;50.518;8.588;2022-11-06T06:44:10;4.80;78.20
19847;DHT22;10084;50.518;8.588;2022-11-06T06:46:36;4.90;78.30
19847;DHT22;10084;50.518;8.588;2022-11-06T06:49:01;5.00;78.40
19847;DHT22;10084;50.518;8.588;2022-11-06T06:51:27;5.10;78.50
19847;DHT22;10084;50.518;8.588;2022-11-06T06:53:53;5.20;78.50
19847;DHT22;10084;50.518;8.588;2022-11-06T06:56:18;5.40;78.70
19847;DHT22;10084;50.518;8.588;2022-11-06T06:58:44;5.50;78.70
19847;DHT22;10084;50.518;8.588;2022-11-06T07:01:10;5.70;78.70
19847;DHT22;10084;50.518;8.588;2022-11-06T07:03:37;5.80;78.60
19847;DHT22;10084;50.518;8.588;2022-11-06T07:06:03;6.00;78.60
19847;DHT22;10084;50.518;8.588;2022-11-06T07:08:29;6.10;78.40
19847;DHT22;10084;50.518;8.588;2022-11-06T07:10:59;6.20;78.50
19847;DHT22;10084;50.518;8.588;2022-11-06T07:13:25;6.40;78.40
19847;DHT22;10084;50.518;8.588;2022-11-06T07:15:51;6.50;78.40
19847;DHT22;10084;50.518;8.588;2022-11-06T07:18:16;6.70;78.50
19847;DHT22;10084;50.518;8.588;2022-11-06T07:20:42;6.80;78.40
19847;DHT22;10084;50.518;8.588;2022-11-06T07:23:08;7.00;78.20
19847;DHT22;10084;50.518;8.588;2022-11-06T07:25:34;7.10;77.90
19847;DHT22;10084;50.518;8.588;2022-11-06T07:28:04;7.20;78.00
19847;DHT22;10084;50.518;8.588;2022-11-06T07:30:30;7.20;78.00
19847;DHT22;10084;50.518;8.588;2022-11-06T07:32:59;7.30;77.90
19847;DHT22;10084;50.518;8.588;2022-11-06T07:35:25;7.30;77.80
19847;DHT22;10084;50.518;8.588;2022-11-06T07:37:51;7.30;77.80
19847;DHT22;10084;50.518;8.588;2022-11-06T07:40:17;7.40;78.40
19847;DHT22;10084;50.518;8.588;2022-11-06T07:42:42;7.50;78.70
19847;DHT22;10084;50.518;8.588;2022-11-06T07:45:12;7.60;78.50
19847;DHT22;10084;50.518;8.588;2022-11-06T07:47:38;7.80;78.40
19847;DHT22;10084;50.518;8.588;2022-11-06T07:50:04;7.80;78.20
19847;DHT22;10084;50.518;8.588;2022-11-06T07:52:30;7.80;78.10
19847;DHT22;10084;50.518;8.588;2022-11-06T07:54:55;7.90;78.00
19847;DHT22;10084;50.518;8.588;2022-11-06T07:57:21;7.90;78.00
19847;DHT22;10084;50.518;8.588;2022-11-06T07:59:47;7.90;78.20
19847;DHT22;10084;50.518;8.588;2022-11-06T08:02:13;8.10;78.50
19847;DHT22;10084;50.518;8.588;2022-11-06T08:04:38;8.30;79.40
19847;DHT22;10084;50.518;8.588;2022-11-06T08:07:04;9.00;81.30
19847;DHT22;10084;50.518;8.588;2022-11-06T08:09:31;9.90;81.50
19847;DHT22;10084;50.518;8.588;2022-11-06T08:11:56;10.70;78.60
19847;DHT22;10084;50.518;8.588;2022-11-06T08:14:22;11.10;77.80
19847;DHT22;10084;50.518;8.588;2022-11-06T08:16:48;11.50;77.40
19847;DHT22;10084;50.518;8.588;2022-11-06T08:19:14;11.90;77.40
19847;DHT22;10084;50.518;8.588;2022-11-06T08:21:39;12.30;77.30
19847;DHT22;10084;50.518;8.588;2022-11-06T08:24:05;12.80;77.00
19847;DHT22;10084;50.518;8.588;2022-11-06T08:26:32;13.40;76.50
19847;DHT22;10084;50.518;8.588;2022-11-06T08:28:57;13.90;76.00
19847;DHT22;10084;50.518;8.588;2022-11-06T08:31:23;14.50;75.70
19847;DHT22;10084;50.518;8.588;2022-11-06T08:33:49;15.00;74.20
19847;DHT22;10084;50.518;8.588;2022-11-06T08:36:15;15.50;73.60
19847;DHT22;10084;50.518;8.588;2022-11-06T08:38:41;16.00;72.80
19847;DHT22;10084;50.518;8.588;2022-11-06T08:41:08;16.40;71.70
19847;DHT22;10084;50.518;8.588;2022-11-06T08:43:35;16.80;70.50
19847;DHT22;10084;50.518;8.588;2022-11-06T08:46:02;17.10;70.20
19847;DHT22;10084;50.518;8.588;2022-11-06T08:48:28;17.40;69.30
19847;DHT22;10084;50.518;8.588;2022-11-06T08:50:54;17.50;69.20
19847;DHT22;10084;50.518;8.588;2022-11-06T08:53:20;17.50;68.60
19847;DHT22;10084;50.518;8.588;2022-11-06T08:55:45;17.60;68.50
19847;DHT22;10084;50.518;8.588;2022-11-06T08:58:11;17.60;67.90
19847;DHT22;10084;50.518;8.588;2022-11-06T09:00:39;17.60;67.30
19847;DHT22;10084;50.518;8.588;2022-11-06T09:03:11;17.60;67.00
19847;DHT22;10084;50.518;8.588;2022-11-06T09:05:41;17.50;67.20
19847;DHT22;10084;50.518;8.588;2022-11-06T09:08:08;17.40;67.90
19847;DHT22;10084;50.518;8.588;2022-11-06T09:10:34;17.30;68.50
19847;DHT22;10084;50.518;8.588;2022-11-06T09:13:00;17.30;69.10
19847;DHT22;10084;50.518;8.588;2022-11-06T09:15:26;17.50;69.10
19847;DHT22;10084;50.518;8.588;2022-11-06T09:17:52;17.70;68.80
19847;DHT22;10084;50.518;8.588;2022-11-06T09:20:19;18.10;68.30
19847;DHT22;10084;50.518;8.588;2022-11-06T09:22:46;18.50;67.00
19847;DHT22;10084;50.518;8.588;2022-11-06T09:25:12;19.00;65.80
19847;DHT22;10084;50.518;8.588;2022-11-06T09:27:49;19.30;64.00
19847;DHT22;10084;50.518;8.588;2022-11-06T09:30:17;19.70;62.50
19847;DHT22;10084;50.518;8.588;2022-11-06T09:32:48;19.90;60.70
19847;DHT22;10084;50.518;8.588;2022-11-06T09:35:14;20.10;60.10
19847;DHT22;10084;50.518;8.588;2022-11-06T09:37:40;20.30;59.40
19847;DHT22;10084;50.518;8.588;2022-11-06T09:40:06;20.50;58.10
19847;DHT22;10084;50.518;8.588;2022-11-06T09:45:38;21.00;57.90
19847;DHT22;10084;50.518;8.588;2022-11-06T09:50:48;21.40;57.20
19847;DHT22;10084;50.518;8.588;2022-11-06T09:53:22;21.60;55.90
19847;DHT22;10084;50.518;8.588;2022-11-06T09:55:51;21.70;55.30
19847;DHT22;10084;50.518;8.588;2022-11-06T09:58:22;21.70;55.00
19847;DHT22;10084;50.518;8.588;2022-11-06T10:00:50;21.80;54.90
19847;DHT22;10084;50.518;8.588;2022-11-06T10:03:28;21.80;54.80
19847;DHT22;10084;50.518;8.588;2022-11-06T10:05:59;21.90;55.10
19847;DHT22;10084;50.518;8.588;2022-11-06T10:08:27;22.00;55.40
19847;DHT22;10084;50.518;8.588;2022-11-06T10:11:01;22.40;54.80
19847;DHT22;10084;50.518;8.588;2022-11-06T10:19:48;24.10;52.90
19847;DHT22;10084;50.518;8.588;2022-11-06T10:22:44;24.30;52.30
19847;DHT22;10084;50.518;8.588;2022-11-06T10:25:21;24.60;52.50
19847;DHT22;10084;50.518;8.588;2022-11-06T10:28:03;25.10;51.90
19847;DHT22;10084;50.518;8.588;2022-11-06T10:30:42;23.60;49.70
19847;DHT22;10084;50.518;8.588;2022-11-06T10:33:23;25.30;49.90
19847;DHT22;10084;50.518;8.588;2022-11-06T10:36:16;25.60;50.40
19847;DHT22;10084;50.518;8.588;2022-11-06T10:38:44;25.70;48.30
19847;DHT22;10084;50.518;8.588;2022-11-06T10:41:19;25.50;48.10
19847;DHT22;10084;50.518;8.588;2022-11-06T10:44:01;25.20;47.50
19847;DHT22;10084;50.518;8.588;2022-11-06T10:46:34;24.90;47.50
19847;DHT22;10084;50.518;8.588;2022-11-06T10:49:19;24.80;48.30
19847;DHT22;10084;50.518;8.588;2022-11-06T10:52:27;24.80;47.40
19847;DHT22;10084;50.518;8.588;2022-11-06T10:58:06;24.50;47.40
19847;DHT22;10084;50.518;8.588;2022-11-06T11:00:33;24.40;47.00
19847;DHT22;10084;50.518;8.588;2022-11-06T11:03:02;24.20;47.10
19847;DHT22;10084;50.518;8.588;2022-11-06T11:05:37;24.50;47.40
19847;DHT22;10084;50.518;8.588;2022-11-06T11:08:03;24.50;46.50
19847;DHT22;10084;50.518;8.588;2022-11-06T11:10:32;24.40;45.60
19847;DHT22;10084;50.518;8.588;2022-11-06T11:13:01;24.20;45.70
19847;DHT22;10084;50.518;8.588;2022-11-06T11:15:46;24.00;46.30
19847;DHT22;10084;50.518;8.588;2022-11-06T11:18:24;23.90;45.80
19847;DHT22;10084;50.518;8.588;2022-11-06T11:23:43;23.80;45.30
19847;DHT22;10084;50.518;8.588;2022-11-06T11:28:50;23.90;45.90
19847;DHT22;10084;50.518;8.588;2022-11-06T11:31:17;24.00;45.80
19847;DHT22;10084;50.518;8.588;2022-11-06T11:33:52;24.20;45.20
19847;DHT22;10084;50.518;8.588;2022-11-06T11:36:19;24.10;45.30
19847;DHT22;10084;50.518;8.588;2022-11-06T11:38:45;23.90;45.10
19847;DHT22;10084;50.518;8.588;2022-11-06T11:46:53;23.80;45.00
19847;DHT22;10084;50.518;8.588;2022-11-06T11:49:32;23.80;44.80
19847;DHT22;10084;50.518;8.588;2022-11-06T11:52:03;23.20;45.10
19847;DHT22;10084;50.518;8.588;2022-11-06T11:54:32;22.30;46.10
19847;DHT22;10084;50.518;8.588;2022-11-06T11:57:16;22.20;47.00
19847;DHT22;10084;50.518;8.588;2022-11-06T11:59:45;22.40;46.90
19847;DHT22;10084;50.518;8.588;2022-11-06T12:02:19;22.50;46.60
19847;DHT22;10084;50.518;8.588;2022-11-06T12:04:50;22.50;46.80
19847;DHT22;10084;50.518;8.588;2022-11-06T12:07:31;22.60;46.80
19847;DHT22;10084;50.518;8.588;2022-11-06T12:09:58;22.40;47.20
19847;DHT22;10084;50.518;8.588;2022-11-06T12:12:35;21.60;46.80
19847;DHT22;10084;50.518;8.588;2022-11-06T12:17:36;19.00;48.90
19847;DHT22;10084;50.518;8.588;2022-11-06T12:20:04;18.00;51.00
19847;DHT22;10084;50.518;8.588;2022-11-06T12:22:39;17.20;52.30
19847;DHT22;10084;50.518;8.588;2022-11-06T12:25:15;16.70;53.20
19847;DHT22;10084;50.518;8.588;2022-11-06T12:27:46;16.10;53.80
19847;DHT22;10084;50.518;8.588;2022-11-06T12:30:18;15.70;54.80
19847;DHT22;10084;50.518;8.588;2022-11-06T12:35:58;14.90;55.70
19847;DHT22;10084;50.518;8.588;2022-11-06T12:41:24;13.80;57.30
19847;DHT22;10084;50.518;8.588;2022-11-06T12:43:51;13.40;58.10
19847;DHT22;10084;50.518;8.588;2022-11-06T12:54:37;14.10;57.90
19847;DHT22;10084;50.518;8.588;2022-11-06T13:00:11;15.70;56.60
19847;DHT22;10084;50.518;8.588;2022-11-06T13:05:34;17.70;53.40
19847;DHT22;10084;50.518;8.588;2022-11-06T13:08:16;18.20;52.20
19847;DHT22;10084;50.518;8.588;2022-11-06T13:10:49;17.70;51.80
19847;DHT22;10084;50.518;8.588;2022-11-06T13:18:41;15.00;55.10
19847;DHT22;10084;50.518;8.588;2022-11-06T13:21:25;14.30;56.40
19847;DHT22;10084;50.518;8.588;2022-11-06T13:23:59;13.90;57.40
19847;DHT22;10084;50.518;8.588;2022-11-06T13:26:34;13.60;58.20
19847;DHT22;10084;50.518;8.588;2022-11-06T13:29:04;13.40;58.50
19847;DHT22;10084;50.518;8.588;2022-11-06T13:31:53;13.30;59.00
19847;DHT22;10084;50.518;8.588;2022-11-06T13:34:28;13.30;59.30
19847;DHT22;10084;50.518;8.588;2022-11-06T13:36:55;13.30;59.50
19847;DHT22;10084;50.518;8.588;2022-11-06T13:39:41;13.20;59.40
19847;DHT22;10084;50.518;8.588;2022-11-06T13:42:28;13.10;59.60
19847;DHT22;10084;50.518;8.588;2022-11-06T13:44:55;12.90;59.90
19847;DHT22;10084;50.518;8.588;2022-11-06T13:47:39;12.90;60.50
19847;DHT22;10084;50.518;8.588;2022-11-06T13:50:18;13.20;60.40
19847;DHT22;10084;50.518;8.588;2022-11-06T13:52:54;13.30;59.50
19847;DHT22;10084;50.518;8.588;2022-11-06T13:55:42;13.10;59.40
19847;DHT22;10084;50.518;8.588;2022-11-06T14:04:12;12.50;60.80
19847;DHT22;10084;50.518;8.588;2022-11-06T14:06:42;12.30;61.20
19847;DHT22;10084;50.518;8.588;2022-11-06T14:09:16;12.20;61.60
19847;DHT22;10084;50.518;8.588;2022-11-06T14:11:44;12.20;61.90
19847;DHT22;10084;50.518;8.588;2022-11-06T14:24:54;12.00;62.50
19847;DHT22;10084;50.518;8.588;2022-11-06T14:32:51;11.80;63.00
19847;DHT22;10084;50.518;8.588;2022-11-06T14:38:15;11.70;63.40
19847;DHT22;10084;50.518;8.588;2022-11-06T14:40:42;11.60;63.60
19847;DHT22;10084;50.518;8.588;2022-11-06T14:45:57;11.50;63.90
19847;DHT22;10084;50.518;8.588;2022-11-06T14:48:34;11.40;64.00
19847;DHT22;10084;50.518;8.588;2022-11-06T14:51:04;11.30;64.20
19847;DHT22;10084;50.518;8.588;2022-11-06T14:53:37;11.30;64.60
19847;DHT22;10084;50.518;8.588;2022-11-06T14:56:08;11.20;65.00
19847;DHT22;10084;50.518;8.588;2022-11-06T14:58:45;11.20;64.60
19847;DHT22;10084;50.518;8.588;2022-11-06T15:01:14;11.20;64.70
19847;DHT22;10084;50.518;8.588;2022-11-06T15:03:53;11.10;64.70
19847;DHT22;10084;50.518;8.588;2022-11-06T15:11:50;11.10;64.90
19847;DHT22;10084;50.518;8.588;2022-11-06T15:16:46;11.10;65.00
19847;DHT22;10084;50.518;8.588;2022-11-06T15:19:21;11.00;65.10
19847;DHT22;10084;50.518;8.588;2022-11-06T15:24:40;11.00;65.30
19847;DHT22;10084;50.518;8.588;2022-11-06T15:27:18;11.00;65.30
19847;DHT22;10084;50.518;8.588;2022-11-06T15:29:47;11.00;65.50
19847;DHT22;10084;50.518;8.588;2022-11-06T15:32:21;10.90;65.50
19847;DHT22;10084;50.518;8.588;2022-11-06T15:35:10;10.90;65.50
19847;DHT22;10084;50.518;8.588;2022-11-06T15:37:49;10.90;65.60
19847;DHT22;10084;50.518;8.588;2022-11-06T15:40:28;10.80;65.70
19847;DHT22;10084;50.518;8.588;2022-11-06T15:42:58;10.80;65.80
19847;DHT22;10084;50.518;8.588;2022-11-06T15:45:27;10.80;65.90
19847;DHT22;10084;50.518;8.588;2022-11-06T15:50:21;10.70;65.90
19847;DHT22;10084;50.518;8.588;2022-11-06T15:52:48;10.70;66.00
19847;DHT22;10084;50.518;8.588;2022-11-06T15:55:27;10.70;66.20
19847;DHT22;10084;50.518;8.588;2022-11-06T15:58:07;10.70;66.10
19847;DHT22;10084;50.518;8.588;2022-11-06T16:00:34;10.80;66.10
19847;DHT22;10084;50.518;8.588;2022-11-06T16:03:03;10.80;66.10
19847;DHT22;10084;50.518;8.588;2022-11-06T16:05:31;10.80;66.00
19847;DHT22;10084;50.518;8.588;2022-11-06T16:07:59;10.80;66.10
19847;DHT22;10084;50.518;8.588;2022-11-06T16:10:25;10.80;66.20
19847;DHT22;10084;50.518;8.588;2022-11-06T16:12:53;10.80;66.20
19847;DHT22;10084;50.518;8.588;2022-11-06T16:20:44;10.70;66.20
19847;DHT22;10084;50.518;8.588;2022-11-06T16:23:12;10.70;66.30
19847;DHT22;10084;50.518;8.588;2022-11-06T16:25:39;10.60;66.40
19847;DHT22;10084;50.518;8.588;2022-11-06T16:28:16;10.60;66.50
19847;DHT22;10084;50.518;8.588;2022-11-06T16:30:43;10.60;66.50
19847;DHT22;10084;50.518;8.588;2022-11-06T16:33:17;10.60;66.60
19847;DHT22;10084;50.518;8.588;2022-11-06T16:35:44;10.70;66.70
19847;DHT22;10084;50.518;8.588;2022-11-06T16:40:50;10.70;66.70
19847;DHT22;10084;50.518;8.588;2022-11-06T16:43:19;10.70;66.70
19847;DHT22;10084;50.518;8.588;2022-11-06T16:45:59;10.70;66.70
19847;DHT22;10084;50.518;8.588;2022-11-06T16:51:29;10.70;66.70
19847;DHT22;10084;50.518;8.588;2022-11-06T16:53:59;10.70;66.80
19847;DHT22;10084;50.518;8.588;2022-11-06T16:56:31;10.70;66.80
19847;DHT22;10084;50.518;8.588;2022-11-06T17:01:23;10.70;66.90
19847;DHT22;10084;50.518;8.588;2022-11-06T17:03:55;10.70;67.60
19847;DHT22;10084;50.518;8.588;2022-11-06T17:06:34;10.70;66.90
19847;DHT22;10084;50.518;8.588;2022-11-06T17:09:22;10.70;66.90
19847;DHT22;10084;50.518;8.588;2022-11-06T17:11:55;10.70;66.90
19847;DHT22;10084;50.518;8.588;2022-11-06T17:14:22;10.70;66.90
19847;DHT22;10084;50.518;8.588;2022-11-06T17:16:56;10.70;66.90
19847;DHT22;10084;50.518;8.588;2022-11-06T17:19:24;10.70;67.00
19847;DHT22;10084;50.518;8.588;2022-11-06T17:21:50;10.70;67.10
19847;DHT22;10084;50.518;8.588;2022-11-06T17:24:17;10.70;67.10
19847;DHT22;10084;50.518;8.588;2022-11-06T17:26:45;10.70;67.10
19847;DHT22;10084;50.518;8.588;2022-11-06T17:29:12;10.70;67.10
19847;DHT22;10084;50.518;8.588;2022-11-06T17:31:37;10.60;67.10
19847;DHT22;10084;50.518;8.588;2022-11-06T17:34:03;10.60;67.20
19847;DHT22;10084;50.518;8.588;2022-11-06T17:36:30;10.60;67.30
19847;DHT22;10084;50.518;8.588;2022-11-06T17:38:58;10.60;67.50
19847;DHT22;10084;50.518;8.588;2022-11-06T17:41:25;10.50;67.50
19847;DHT22;10084;50.518;8.588;2022-11-06T17:44:08;10.60;67.60
19847;DHT22;10084;50.518;8.588;2022-11-06T17:46:36;10.50;67.60
19847;DHT22;10084;50.518;8.588;2022-11-06T17:49:02;10.50;67.70
19847;DHT22;10084;50.518;8.588;2022-11-06T17:51:29;10.50;67.80
19847;DHT22;10084;50.518;8.588;2022-11-06T17:54:14;10.50;67.90
19847;DHT22;10084;50.518;8.588;2022-11-06T17:56:40;10.40;68.00
19847;DHT22;10084;50.518;8.588;2022-11-06T17:59:07;10.30;68.20
19847;DHT22;10084;50.518;8.588;2022-11-06T18:01:33;10.20;68.50
19847;DHT22;10084;50.518;8.588;2022-11-06T18:03:59;10.20;68.80
19847;DHT22;10084;50.518;8.588;2022-11-06T18:06:25;10.10;69.00
19847;DHT22;10084;50.518;8.588;2022-11-06T18:08:58;10.00;69.20
19847;DHT22;10084;50.518;8.588;2022-11-06T18:11:25;9.90;69.50
19847;DHT22;10084;50.518;8.588;2022-11-06T18:13:51;9.80;69.60
19847;DHT22;10084;50.518;8.588;2022-11-06T18:16:23;9.80;69.80